sensor_id;sensor_type;location;lat;lon;timestamp;P1;durP1;ratioP1;P2;durP2;ratioP2
49890;SDS011;35780;55.568;37.492;2023-07-13T00:01:14;6.72;;;2.47;;
49890;SDS011;35780;55.568;37.492;2023-07-13T00:03:40;4.07;;;2.58;;
49890;SDS011;35780;55.568;37.492;2023-07-13T00:06:06;6.50;;;2.50;;
49890;SDS011;35780;55.568;37.492;2023-07-13T00:08:32;4.10;;;2.88;;
49890;SDS011;35780;55.568;37.492;2023-07-13T00:10:58;4.45;;;2.35;;
49890;SDS011;35780;55.568;37.492;2023-07-13T00:13:25;3.92;;;2.75;;
49890;SDS011;35780;55.568;37.492;2023-07-13T00:15:50;7.82;;;2.95;;
49890;SDS011;35780;55.568;37.492;2023-07-13T00:18:16;3.95;;;2.40;;
49890;SDS011;35780;55.568;37.492;2023-07-13T00:20:41;3.60;;;2.38;;
49890;SDS011;35780;55.568;37.492;2023-07-13T00:23:07;7.43;;;2.47;;
49890;SDS011;35780;55.568;37.492;2023-07-13T00:25:32;4.28;;;2.00;;
49890;SDS011;35780;55.568;37.492;2023-07-13T00:27:58;6.50;;;2.40;;
49890;SDS011;35780;55.568;37.492;2023-07-13T00:30:23;6.03;;;2.60;;
49890;SDS011;35780;55.568;37.492;2023-07-13T00:32:49;4.60;;;2.78;;
49890;SDS011;35780;55.568;37.492;2023-07-13T00:35:15;4.43;;;2.67;;
49890;SDS011;35780;55.568;37.492;2023-07-13T00:37:41;5.13;;;2.78;;
49890;SDS011;35780;55.568;37.492;2023-07-13T00:40:07;4.05;;;2.60;;
49890;SDS011;35780;55.568;37.492;2023-07-13T00:42:34;4.10;;;2.80;;
49890;SDS011;35780;55.568;37.492;2023-07-13T00:47:51;8.60;;;3.20;;
49890;SDS011;35780;55.568;37.492;2023-07-13T00:50:17;5.10;;;2.78;;
49890;SDS011;35780;55.568;37.492;2023-07-13T00:52:46;6.57;;;2.35;;
49890;SDS011;35780;55.568;37.492;2023-07-13T00:55:16;5.00;;;2.13;;
49890;SDS011;35780;55.568;37.492;2023-07-13T00:57:42;5.47;;;3.03;;
49890;SDS011;35780;55.568;37.492;2023-07-13T01:00:09;5.05;;;2.75;;
49890;SDS011;35780;55.568;37.492;2023-07-13T01:02:36;4.88;;;2.17;;
49890;SDS011;35780;55.568;37.492;2023-07-13T01:05:09;6.88;;;2.70;;
49890;SDS011;35780;55.568;37.492;2023-07-13T01:07:41;7.97;;;2.75;;
49890;SDS011;35780;55.568;37.492;2023-07-13T01:10:09;9.32;;;2.70;;
49890;SDS011;35780;55.568;37.492;2023-07-13T01:12:54;7.75;;;2.67;;
49890;SDS011;35780;55.568;37.492;2023-07-13T01:15:39;3.78;;;2.45;;
49890;SDS011;35780;55.568;37.492;2023-07-13T01:18:05;4.20;;;3.00;;
49890;SDS011;35780;55.568;37.492;2023-07-13T01:20:33;9.40;;;2.90;;
49890;SDS011;35780;55.568;37.492;2023-07-13T01:23:11;6.70;;;2.80;;
49890;SDS011;35780;55.568;37.492;2023-07-13T01:25:38;4.35;;;2.83;;
49890;SDS011;35780;55.568;37.492;2023-07-13T01:28:04;4.53;;;2.85;;
49890;SDS011;35780;55.568;37.492;2023-07-13T01:30:31;4.32;;;2.95;;
49890;SDS011;35780;55.568;37.492;2023-07-13T01:32:57;6.13;;;2.60;;
49890;SDS011;35780;55.568;37.492;2023-07-13T01:35:23;4.13;;;2.50;;
49890;SDS011;35780;55.568;37.492;2023-07-13T01:37:50;6.55;;;2.78;;
49890;SDS011;35780;55.568;37.492;2023-07-13T01:40:16;4.05;;;2.90;;
49890;SDS011;35780;55.568;37.492;2023-07-13T01:42:42;3.85;;;2.58;;
49890;SDS011;35780;55.568;37.492;2023-07-13T01:45:07;5.68;;;2.83;;
49890;SDS011;35780;55.568;37.492;2023-07-13T01:47:33;8.43;;;3.08;;
49890;SDS011;35780;55.568;37.492;2023-07-13T01:49:58;7.07;;;2.58;;
49890;SDS011;35780;55.568;37.492;2023-07-13T01:52:24;4.10;;;2.70;;
49890;SDS011;35780;55.568;37.492;2023-07-13T01:54:49;5.50;;;2.80;;
49890;SDS011;35780;55.568;37.492;2023-07-13T01:57:15;4.20;;;2.25;;
49890;SDS011;35780;55.568;37.492;2023-07-13T01:59:43;5.80;;;3.10;;
49890;SDS011;35780;55.568;37.492;2023-07-13T02:02:08;4.80;;;2.70;;
49890;SDS011;35780;55.568;37.492;2023-07-13T02:04:34;4.95;;;2.97;;
49890;SDS011;35780;55.568;37.492;2023-07-13T02:06:59;5.05;;;2.83;;
49890;SDS011;35780;55.568;37.492;2023-07-13T02:09:25;4.15;;;3.00;;
49890;SDS011;35780;55.568;37.492;2023-07-13T02:11:50;3.83;;;2.75;;
49890;SDS011;35780;55.568;37.492;2023-07-13T02:14:18;4.40;;;3.00;;
49890;SDS011;35780;55.568;37.492;2023-07-13T02:16:43;5.43;;;3.10;;
49890;SDS011;35780;55.568;37.492;2023-07-13T02:19:09;5.03;;;3.08;;
49890;SDS011;35780;55.568;37.492;2023-07-13T02:21:34;3.53;;;2.85;;
49890;SDS011;35780;55.568;37.492;2023-07-13T02:24:00;7.38;;;2.85;;
49890;SDS011;35780;55.568;37.492;2023-07-13T02:26:26;8.73;;;3.05;;
49890;SDS011;35780;55.568;37.492;2023-07-13T02:28:52;5.05;;;3.35;;
49890;SDS011;35780;55.568;37.492;2023-07-13T02:31:17;5.88;;;3.25;;
49890;SDS011;35780;55.568;37.492;2023-07-13T02:33:43;8.55;;;4.40;;
49890;SDS011;35780;55.568;37.492;2023-07-13T02:36:09;9.50;;;4.20;;
49890;SDS011;35780;55.568;37.492;2023-07-13T02:38:35;5.30;;;2.55;;
49890;SDS011;35780;55.568;37.492;2023-07-13T02:41:05;6.78;;;4.03;;
49890;SDS011;35780;55.568;37.492;2023-07-13T02:43:32;6.40;;;3.00;;
49890;SDS011;35780;55.568;37.492;2023-07-13T02:46:01;5.30;;;3.13;;
49890;SDS011;35780;55.568;37.492;2023-07-13T02:48:29;5.07;;;2.78;;
49890;SDS011;35780;55.568;37.492;2023-07-13T02:50:55;7.18;;;3.50;;
49890;SDS011;35780;55.568;37.492;2023-07-13T02:53:20;8.85;;;3.30;;
49890;SDS011;35780;55.568;37.492;2023-07-13T02:55:46;4.50;;;3.13;;
49890;SDS011;35780;55.568;37.492;2023-07-13T02:58:12;6.22;;;3.58;;
49890;SDS011;35780;55.568;37.492;2023-07-13T03:00:41;7.05;;;3.00;;
49890;SDS011;35780;55.568;37.492;2023-07-13T03:03:11;7.03;;;3.33;;
49890;SDS011;35780;55.568;37.492;2023-07-13T03:05:40;5.10;;;3.10;;
49890;SDS011;35780;55.568;37.492;2023-07-13T03:08:10;5.63;;;3.40;;
49890;SDS011;35780;55.568;37.492;2023-07-13T03:10:36;6.45;;;3.22;;
49890;SDS011;35780;55.568;37.492;2023-07-13T03:13:01;10.93;;;3.45;;
49890;SDS011;35780;55.568;37.492;2023-07-13T03:15:27;6.00;;;3.38;;
49890;SDS011;35780;55.568;37.492;2023-07-13T03:17:53;4.88;;;3.17;;
49890;SDS011;35780;55.568;37.492;2023-07-13T03:20:18;5.55;;;3.30;;
49890;SDS011;35780;55.568;37.492;2023-07-13T03:22:44;8.80;;;4.05;;
49890;SDS011;35780;55.568;37.492;2023-07-13T03:25:12;5.07;;;3.33;;
49890;SDS011;35780;55.568;37.492;2023-07-13T03:27:38;6.00;;;3.20;;
49890;SDS011;35780;55.568;37.492;2023-07-13T03:30:04;9.15;;;3.25;;
49890;SDS011;35780;55.568;37.492;2023-07-13T03:32:31;5.22;;;2.90;;
49890;SDS011;35780;55.568;37.492;2023-07-13T03:34:57;5.43;;;3.20;;
49890;SDS011;35780;55.568;37.492;2023-07-13T03:37:22;7.55;;;3.25;;
49890;SDS011;35780;55.568;37.492;2023-07-13T03:39:48;7.53;;;2.85;;
49890;SDS011;35780;55.568;37.492;2023-07-13T03:42:14;4.47;;;3.13;;
49890;SDS011;35780;55.568;37.492;2023-07-13T03:44:40;5.95;;;2.63;;
49890;SDS011;35780;55.568;37.492;2023-07-13T03:47:06;11.13;;;3.75;;
49890;SDS011;35780;55.568;37.492;2023-07-13T03:49:34;5.78;;;3.45;;
49890;SDS011;35780;55.568;37.492;2023-07-13T03:51:59;9.10;;;3.25;;
49890;SDS011;35780;55.568;37.492;2023-07-13T03:54:25;7.45;;;3.13;;
49890;SDS011;35780;55.568;37.492;2023-07-13T03:56:51;7.22;;;3.17;;
49890;SDS011;35780;55.568;37.492;2023-07-13T03:59:16;4.50;;;3.17;;
49890;SDS011;35780;55.568;37.492;2023-07-13T04:01:42;7.05;;;3.45;;
49890;SDS011;35780;55.568;37.492;2023-07-13T04:04:08;6.68;;;2.90;;
49890;SDS011;35780;55.568;37.492;2023-07-13T04:06:34;8.95;;;3.60;;
49890;SDS011;35780;55.568;37.492;2023-07-13T04:09:00;4.50;;;3.13;;
49890;SDS011;35780;55.568;37.492;2023-07-13T04:11:27;4.72;;;3.00;;
49890;SDS011;35780;55.568;37.492;2023-07-13T04:13:53;6.38;;;2.60;;
49890;SDS011;35780;55.568;37.492;2023-07-13T04:16:19;6.20;;;2.90;;
49890;SDS011;35780;55.568;37.492;2023-07-13T04:18:46;5.28;;;2.22;;
49890;SDS011;35780;55.568;37.492;2023-07-13T04:21:12;9.18;;;2.92;;
49890;SDS011;35780;55.568;37.492;2023-07-13T04:23:38;8.43;;;3.17;;
49890;SDS011;35780;55.568;37.492;2023-07-13T04:26:04;4.60;;;2.92;;
49890;SDS011;35780;55.568;37.492;2023-07-13T04:28:30;7.13;;;2.95;;
49890;SDS011;35780;55.568;37.492;2023-07-13T04:30:56;6.55;;;3.22;;
49890;SDS011;35780;55.568;37.492;2023-07-13T04:33:21;8.00;;;4.65;;
49890;SDS011;35780;55.568;37.492;2023-07-13T04:35:48;7.78;;;3.13;;
49890;SDS011;35780;55.568;37.492;2023-07-13T04:38:28;8.48;;;3.55;;
49890;SDS011;35780;55.568;37.492;2023-07-13T04:40:55;10.70;;;3.75;;
49890;SDS011;35780;55.568;37.492;2023-07-13T04:43:21;8.95;;;2.63;;
49890;SDS011;35780;55.568;37.492;2023-07-13T04:45:47;8.52;;;3.33;;
49890;SDS011;35780;55.568;37.492;2023-07-13T04:48:13;6.80;;;3.30;;
49890;SDS011;35780;55.568;37.492;2023-07-13T04:50:38;8.55;;;2.90;;
49890;SDS011;35780;55.568;37.492;2023-07-13T04:53:04;8.27;;;2.88;;
49890;SDS011;35780;55.568;37.492;2023-07-13T04:55:30;10.52;;;2.92;;
49890;SDS011;35780;55.568;37.492;2023-07-13T04:57:56;7.93;;;2.40;;
49890;SDS011;35780;55.568;37.492;2023-07-13T05:00:23;8.15;;;3.75;;
49890;SDS011;35780;55.568;37.492;2023-07-13T05:02:49;5.22;;;2.22;;
49890;SDS011;35780;55.568;37.492;2023-07-13T05:05:15;7.85;;;3.35;;
49890;SDS011;35780;55.568;37.492;2023-07-13T05:07:40;7.75;;;3.20;;
49890;SDS011;35780;55.568;37.492;2023-07-13T05:10:06;7.63;;;2.88;;
49890;SDS011;35780;55.568;37.492;2023-07-13T05:12:32;5.25;;;2.33;;
49890;SDS011;35780;55.568;37.492;2023-07-13T05:14:58;6.97;;;2.50;;
49890;SDS011;35780;55.568;37.492;2023-07-13T05:17:23;9.38;;;2.80;;
49890;SDS011;35780;55.568;37.492;2023-07-13T05:19:49;4.82;;;2.80;;
49890;SDS011;35780;55.568;37.492;2023-07-13T05:22:14;4.80;;;2.63;;
49890;SDS011;35780;55.568;37.492;2023-07-13T05:24:43;9.30;;;2.65;;
49890;SDS011;35780;55.568;37.492;2023-07-13T05:27:10;7.13;;;2.90;;
49890;SDS011;35780;55.568;37.492;2023-07-13T05:29:36;5.40;;;2.53;;
49890;SDS011;35780;55.568;37.492;2023-07-13T05:32:01;10.95;;;3.00;;
49890;SDS011;35780;55.568;37.492;2023-07-13T05:34:28;4.82;;;2.50;;
49890;SDS011;35780;55.568;37.492;2023-07-13T05:36:54;5.65;;;2.50;;
49890;SDS011;35780;55.568;37.492;2023-07-13T05:39:19;6.70;;;2.40;;
49890;SDS011;35780;55.568;37.492;2023-07-13T05:41:45;7.32;;;2.47;;
49890;SDS011;35780;55.568;37.492;2023-07-13T05:44:10;6.70;;;2.80;;
49890;SDS011;35780;55.568;37.492;2023-07-13T05:46:38;5.10;;;2.42;;
49890;SDS011;35780;55.568;37.492;2023-07-13T05:49:04;10.57;;;2.97;;
49890;SDS011;35780;55.568;37.492;2023-07-13T05:51:29;5.13;;;2.20;;
49890;SDS011;35780;55.568;37.492;2023-07-13T05:53:55;8.73;;;2.33;;
49890;SDS011;35780;55.568;37.492;2023-07-13T05:56:20;5.28;;;2.60;;
49890;SDS011;35780;55.568;37.492;2023-07-13T05:58:47;4.20;;;2.53;;
49890;SDS011;35780;55.568;37.492;2023-07-13T06:01:13;7.45;;;3.40;;
49890;SDS011;35780;55.568;37.492;2023-07-13T06:03:39;9.02;;;4.25;;
49890;SDS011;35780;55.568;37.492;2023-07-13T06:06:05;6.50;;;3.20;;
49890;SDS011;35780;55.568;37.492;2023-07-13T06:08:33;10.73;;;2.83;;
49890;SDS011;35780;55.568;37.492;2023-07-13T06:11:18;9.60;;;2.95;;
49890;SDS011;35780;55.568;37.492;2023-07-13T06:13:44;5.57;;;2.50;;
49890;SDS011;35780;55.568;37.492;2023-07-13T06:16:10;5.35;;;2.90;;
49890;SDS011;35780;55.568;37.492;2023-07-13T06:18:37;10.40;;;2.60;;
49890;SDS011;35780;55.568;37.492;2023-07-13T06:21:09;10.63;;;2.67;;
49890;SDS011;35780;55.568;37.492;2023-07-13T06:23:36;6.30;;;2.83;;
49890;SDS011;35780;55.568;37.492;2023-07-13T06:26:03;5.85;;;2.90;;
49890;SDS011;35780;55.568;37.492;2023-07-13T06:28:29;7.78;;;3.13;;
49890;SDS011;35780;55.568;37.492;2023-07-13T06:30:56;4.10;;;2.30;;
49890;SDS011;35780;55.568;37.492;2023-07-13T06:33:22;5.32;;;3.33;;
49890;SDS011;35780;55.568;37.492;2023-07-13T06:35:48;4.18;;;2.15;;
49890;SDS011;35780;55.568;37.492;2023-07-13T06:38:13;4.68;;;2.20;;
49890;SDS011;35780;55.568;37.492;2023-07-13T06:40:39;6.50;;;2.67;;
49890;SDS011;35780;55.568;37.492;2023-07-13T06:43:05;3.88;;;2.15;;
49890;SDS011;35780;55.568;37.492;2023-07-13T06:45:30;8.30;;;2.47;;
49890;SDS011;35780;55.568;37.492;2023-07-13T06:48:01;3.40;;;2.45;;
49890;SDS011;35780;55.568;37.492;2023-07-13T06:50:26;5.57;;;2.42;;
49890;SDS011;35780;55.568;37.492;2023-07-13T06:52:52;6.72;;;2.95;;
49890;SDS011;35780;55.568;37.492;2023-07-13T06:55:17;7.20;;;2.42;;
49890;SDS011;35780;55.568;37.492;2023-07-13T06:57:44;8.10;;;2.28;;
49890;SDS011;35780;55.568;37.492;2023-07-13T07:00:11;12.75;;;2.78;;
49890;SDS011;35780;55.568;37.492;2023-07-13T07:02:37;5.80;;;2.28;;
49890;SDS011;35780;55.568;37.492;2023-07-13T07:05:03;5.95;;;2.40;;
49890;SDS011;35780;55.568;37.492;2023-07-13T07:07:29;6.90;;;2.78;;
49890;SDS011;35780;55.568;37.492;2023-07-13T07:09:54;3.90;;;2.15;;
49890;SDS011;35780;55.568;37.492;2023-07-13T07:12:19;9.15;;;2.53;;
49890;SDS011;35780;55.568;37.492;2023-07-13T07:14:45;6.15;;;2.70;;
49890;SDS011;35780;55.568;37.492;2023-07-13T07:17:10;5.30;;;2.67;;
49890;SDS011;35780;55.568;37.492;2023-07-13T07:19:37;6.38;;;2.97;;
49890;SDS011;35780;55.568;37.492;2023-07-13T07:22:03;9.38;;;3.35;;
49890;SDS011;35780;55.568;37.492;2023-07-13T07:24:29;10.32;;;2.78;;
49890;SDS011;35780;55.568;37.492;2023-07-13T07:26:54;3.65;;;2.05;;
49890;SDS011;35780;55.568;37.492;2023-07-13T07:29:19;6.53;;;2.78;;
49890;SDS011;35780;55.568;37.492;2023-07-13T07:31:45;4.68;;;2.53;;
49890;SDS011;35780;55.568;37.492;2023-07-13T07:34:11;5.85;;;2.60;;
49890;SDS011;35780;55.568;37.492;2023-07-13T07:36:36;5.32;;;2.28;;
49890;SDS011;35780;55.568;37.492;2023-07-13T07:39:02;5.57;;;2.72;;
49890;SDS011;35780;55.568;37.492;2023-07-13T07:41:27;5.70;;;2.38;;
49890;SDS011;35780;55.568;37.492;2023-07-13T07:43:53;7.70;;;2.67;;
49890;SDS011;35780;55.568;37.492;2023-07-13T07:46:18;4.90;;;2.35;;
49890;SDS011;35780;55.568;37.492;2023-07-13T07:48:44;6.80;;;2.35;;
49890;SDS011;35780;55.568;37.492;2023-07-13T07:51:09;5.38;;;2.30;;
49890;SDS011;35780;55.568;37.492;2023-07-13T07:53:35;7.28;;;2.60;;
49890;SDS011;35780;55.568;37.492;2023-07-13T07:56:00;7.45;;;2.35;;
49890;SDS011;35780;55.568;37.492;2023-07-13T07:58:26;6.50;;;2.55;;
49890;SDS011;35780;55.568;37.492;2023-07-13T08:00:51;7.45;;;2.20;;
49890;SDS011;35780;55.568;37.492;2023-07-13T08:03:17;10.45;;;2.60;;
49890;SDS011;35780;55.568;37.492;2023-07-13T08:05:42;4.68;;;2.97;;
49890;SDS011;35780;55.568;37.492;2023-07-13T08:08:08;6.60;;;2.50;;
49890;SDS011;35780;55.568;37.492;2023-07-13T08:10:35;4.30;;;2.40;;
49890;SDS011;35780;55.568;37.492;2023-07-13T08:13:02;4.38;;;2.50;;
49890;SDS011;35780;55.568;37.492;2023-07-13T08:15:28;5.43;;;2.55;;
49890;SDS011;35780;55.568;37.492;2023-07-13T08:17:54;5.55;;;2.47;;
49890;SDS011;35780;55.568;37.492;2023-07-13T08:20:19;7.13;;;2.63;;
49890;SDS011;35780;55.568;37.492;2023-07-13T08:22:45;6.40;;;2.50;;
49890;SDS011;35780;55.568;37.492;2023-07-13T08:25:11;4.93;;;2.53;;
49890;SDS011;35780;55.568;37.492;2023-07-13T08:27:36;5.38;;;2.67;;
49890;SDS011;35780;55.568;37.492;2023-07-13T08:30:02;3.45;;;2.08;;
49890;SDS011;35780;55.568;37.492;2023-07-13T08:32:29;9.10;;;2.65;;
49890;SDS011;35780;55.568;37.492;2023-07-13T08:34:55;8.43;;;2.40;;
49890;SDS011;35780;55.568;37.492;2023-07-13T08:37:20;8.45;;;3.20;;
49890;SDS011;35780;55.568;37.492;2023-07-13T08:39:46;9.68;;;3.05;;
49890;SDS011;35780;55.568;37.492;2023-07-13T08:42:14;4.97;;;2.40;;
49890;SDS011;35780;55.568;37.492;2023-07-13T08:44:53;4.18;;;2.85;;
49890;SDS011;35780;55.568;37.492;2023-07-13T08:47:30;4.22;;;2.88;;
49890;SDS011;35780;55.568;37.492;2023-07-13T08:49:58;8.50;;;2.40;;
49890;SDS011;35780;55.568;37.492;2023-07-13T08:52:32;5.43;;;3.17;;
49890;SDS011;35780;55.568;37.492;2023-07-13T08:55:12;11.25;;;3.35;;
49890;SDS011;35780;55.568;37.492;2023-07-13T08:57:53;6.10;;;3.45;;
49890;SDS011;35780;55.568;37.492;2023-07-13T09:00:31;5.55;;;2.90;;
49890;SDS011;35780;55.568;37.492;2023-07-13T09:03:00;6.50;;;2.70;;
49890;SDS011;35780;55.568;37.492;2023-07-13T09:05:30;7.22;;;2.83;;
49890;SDS011;35780;55.568;37.492;2023-07-13T09:10:46;6.47;;;2.88;;
49890;SDS011;35780;55.568;37.492;2023-07-13T09:16:17;6.88;;;2.58;;
49890;SDS011;35780;55.568;37.492;2023-07-13T09:18:46;6.60;;;3.30;;
49890;SDS011;35780;55.568;37.492;2023-07-13T09:26:14;7.85;;;3.22;;
49890;SDS011;35780;55.568;37.492;2023-07-13T09:28:44;5.97;;;3.45;;
49890;SDS011;35780;55.568;37.492;2023-07-13T09:31:54;10.10;;;3.47;;
49890;SDS011;35780;55.568;37.492;2023-07-13T09:34:08;9.00;;;3.88;;
49890;SDS011;35780;55.568;37.492;2023-07-13T09:36:35;8.02;;;3.45;;
49890;SDS011;35780;55.568;37.492;2023-07-13T09:41:33;6.22;;;3.45;;
49890;SDS011;35780;55.568;37.492;2023-07-13T09:46:38;6.65;;;3.70;;
49890;SDS011;35780;55.568;37.492;2023-07-13T09:49:09;4.43;;;2.88;;
49890;SDS011;35780;55.568;37.492;2023-07-13T09:51:36;5.07;;;2.90;;
49890;SDS011;35780;55.568;37.492;2023-07-13T09:54:19;6.07;;;3.78;;
49890;SDS011;35780;55.568;37.492;2023-07-13T09:56:46;6.13;;;3.95;;
49890;SDS011;35780;55.568;37.492;2023-07-13T09:59:18;7.50;;;3.70;;
49890;SDS011;35780;55.568;37.492;2023-07-13T10:01:49;6.10;;;2.95;;
49890;SDS011;35780;55.568;37.492;2023-07-13T10:04:16;6.80;;;3.65;;
49890;SDS011;35780;55.568;37.492;2023-07-13T10:06:43;6.20;;;3.30;;
49890;SDS011;35780;55.568;37.492;2023-07-13T10:09:09;4.80;;;3.08;;
49890;SDS011;35780;55.568;37.492;2023-07-13T10:11:36;7.85;;;4.32;;
49890;SDS011;35780;55.568;37.492;2023-07-13T10:14:02;7.22;;;3.55;;
49890;SDS011;35780;55.568;37.492;2023-07-13T10:16:35;13.32;;;4.13;;
49890;SDS011;35780;55.568;37.492;2023-07-13T10:19:23;6.30;;;3.72;;
49890;SDS011;35780;55.568;37.492;2023-07-13T10:21:50;7.20;;;3.92;;
49890;SDS011;35780;55.568;37.492;2023-07-13T10:26:56;8.00;;;4.05;;
49890;SDS011;35780;55.568;37.492;2023-07-13T10:31:55;6.15;;;3.72;;
49890;SDS011;35780;55.568;37.492;2023-07-13T10:34:22;8.50;;;4.20;;
49890;SDS011;35780;55.568;37.492;2023-07-13T10:36:48;7.45;;;4.22;;
49890;SDS011;35780;55.568;37.492;2023-07-13T10:39:18;9.35;;;4.95;;
49890;SDS011;35780;55.568;37.492;2023-07-13T10:41:45;6.40;;;4.28;;
49890;SDS011;35780;55.568;37.492;2023-07-13T10:44:46;7.07;;;4.40;;
49890;SDS011;35780;55.568;37.492;2023-07-13T10:47:07;6.90;;;4.90;;
49890;SDS011;35780;55.568;37.492;2023-07-13T10:49:34;10.82;;;5.70;;
49890;SDS011;35780;55.568;37.492;2023-07-13T10:52:01;6.50;;;4.30;;
49890;SDS011;35780;55.568;37.492;2023-07-13T10:54:30;6.13;;;4.03;;
49890;SDS011;35780;55.568;37.492;2023-07-13T10:59:38;5.50;;;3.25;;
49890;SDS011;35780;55.568;37.492;2023-07-13T11:04:43;6.80;;;3.63;;
49890;SDS011;35780;55.568;37.492;2023-07-13T11:07:17;13.13;;;4.40;;
49890;SDS011;35780;55.568;37.492;2023-07-13T11:09:53;7.30;;;3.42;;
49890;SDS011;35780;55.568;37.492;2023-07-13T11:22:45;11.05;;;4.22;;
49890;SDS011;35780;55.568;37.492;2023-07-13T11:28:27;10.07;;;3.40;;
49890;SDS011;35780;55.568;37.492;2023-07-13T11:36:12;5.70;;;3.78;;
49890;SDS011;35780;55.568;37.492;2023-07-13T11:38:43;7.32;;;3.80;;
49890;SDS011;35780;55.568;37.492;2023-07-13T11:43:39;6.15;;;3.28;;
49890;SDS011;35780;55.568;37.492;2023-07-13T11:46:21;7.43;;;3.83;;
49890;SDS011;35780;55.568;37.492;2023-07-13T11:48:51;7.22;;;3.58;;
49890;SDS011;35780;55.568;37.492;2023-07-13T11:51:30;11.57;;;3.78;;
49890;SDS011;35780;55.568;37.492;2023-07-13T11:53:57;8.95;;;4.15;;
49890;SDS011;35780;55.568;37.492;2023-07-13T11:56:26;9.50;;;3.80;;
49890;SDS011;35780;55.568;37.492;2023-07-13T11:58:53;7.13;;;3.15;;
49890;SDS011;35780;55.568;37.492;2023-07-13T12:01:21;8.40;;;3.45;;
49890;SDS011;35780;55.568;37.492;2023-07-13T12:03:48;4.53;;;2.90;;
49890;SDS011;35780;55.568;37.492;2023-07-13T12:06:25;11.13;;;3.38;;
49890;SDS011;35780;55.568;37.492;2023-07-13T12:09:02;7.43;;;3.33;;
49890;SDS011;35780;55.568;37.492;2023-07-13T12:11:35;5.63;;;3.47;;
49890;SDS011;35780;55.568;37.492;2023-07-13T12:14:02;6.25;;;3.42;;
49890;SDS011;35780;55.568;37.492;2023-07-13T12:16:29;6.90;;;3.10;;
49890;SDS011;35780;55.568;37.492;2023-07-13T12:18:58;7.95;;;3.20;;
49890;SDS011;35780;55.568;37.492;2023-07-13T12:21:31;6.03;;;3.22;;
49890;SDS011;35780;55.568;37.492;2023-07-13T12:23:57;7.55;;;4.15;;
49890;SDS011;35780;55.568;37.492;2023-07-13T12:26:23;4.47;;;3.15;;
49890;SDS011;35780;55.568;37.492;2023-07-13T12:28:51;7.25;;;3.65;;
49890;SDS011;35780;55.568;37.492;2023-07-13T12:34:22;9.77;;;3.80;;
49890;SDS011;35780;55.568;37.492;2023-07-13T12:36:53;7.18;;;4.40;;
49890;SDS011;35780;55.568;37.492;2023-07-13T12:44:40;10.38;;;4.10;;
49890;SDS011;35780;55.568;37.492;2023-07-13T12:47:06;7.45;;;4.35;;
49890;SDS011;35780;55.568;37.492;2023-07-13T12:49:40;9.70;;;5.45;;
49890;SDS011;35780;55.568;37.492;2023-07-13T12:52:13;8.48;;;6.03;;
49890;SDS011;35780;55.568;37.492;2023-07-13T12:54:40;8.50;;;5.40;;
49890;SDS011;35780;55.568;37.492;2023-07-13T12:57:08;11.02;;;5.93;;
49890;SDS011;35780;55.568;37.492;2023-07-13T12:59:40;11.18;;;5.18;;
49890;SDS011;35780;55.568;37.492;2023-07-13T13:02:21;11.82;;;4.80;;
49890;SDS011;35780;55.568;37.492;2023-07-13T13:04:52;7.97;;;4.57;;
49890;SDS011;35780;55.568;37.492;2023-07-13T13:07:20;7.65;;;3.95;;
49890;SDS011;35780;55.568;37.492;2023-07-13T13:09:45;10.35;;;3.97;;
49890;SDS011;35780;55.568;37.492;2023-07-13T13:12:12;10.52;;;4.18;;
49890;SDS011;35780;55.568;37.492;2023-07-13T13:14:38;8.45;;;3.50;;
49890;SDS011;35780;55.568;37.492;2023-07-13T13:17:04;14.20;;;4.68;;
49890;SDS011;35780;55.568;37.492;2023-07-13T13:19:45;7.57;;;4.07;;
49890;SDS011;35780;55.568;37.492;2023-07-13T13:22:11;10.40;;;3.88;;
49890;SDS011;35780;55.568;37.492;2023-07-13T13:24:36;7.93;;;3.88;;
49890;SDS011;35780;55.568;37.492;2023-07-13T13:27:02;8.10;;;3.88;;
49890;SDS011;35780;55.568;37.492;2023-07-13T13:29:27;9.27;;;4.82;;
49890;SDS011;35780;55.568;37.492;2023-07-13T13:31:53;8.13;;;3.78;;
49890;SDS011;35780;55.568;37.492;2023-07-13T13:34:20;10.15;;;4.35;;
49890;SDS011;35780;55.568;37.492;2023-07-13T13:36:49;6.60;;;4.05;;
49890;SDS011;35780;55.568;37.492;2023-07-13T13:39:21;6.65;;;3.35;;
49890;SDS011;35780;55.568;37.492;2023-07-13T13:41:51;12.95;;;3.25;;
49890;SDS011;35780;55.568;37.492;2023-07-13T13:44:18;8.23;;;4.15;;
49890;SDS011;35780;55.568;37.492;2023-07-13T13:46:47;6.78;;;3.75;;
49890;SDS011;35780;55.568;37.492;2023-07-13T13:49:18;8.73;;;3.42;;
49890;SDS011;35780;55.568;37.492;2023-07-13T13:51:46;5.80;;;3.45;;
49890;SDS011;35780;55.568;37.492;2023-07-13T13:54:13;7.13;;;3.95;;
49890;SDS011;35780;55.568;37.492;2023-07-13T13:56:44;7.30;;;3.83;;
49890;SDS011;35780;55.568;37.492;2023-07-13T13:59:10;6.38;;;3.63;;
49890;SDS011;35780;55.568;37.492;2023-07-13T14:01:37;8.93;;;4.05;;
49890;SDS011;35780;55.568;37.492;2023-07-13T14:04:03;7.13;;;3.22;;
49890;SDS011;35780;55.568;37.492;2023-07-13T14:06:28;8.48;;;3.72;;
49890;SDS011;35780;55.568;37.492;2023-07-13T14:08:54;7.80;;;3.90;;
49890;SDS011;35780;55.568;37.492;2023-07-13T14:11:23;6.35;;;3.78;;
49890;SDS011;35780;55.568;37.492;2023-07-13T14:13:51;7.00;;;3.80;;
49890;SDS011;35780;55.568;37.492;2023-07-13T14:18:47;13.30;;;3.30;;
49890;SDS011;35780;55.568;37.492;2023-07-13T14:21:13;8.13;;;3.40;;
49890;SDS011;35780;55.568;37.492;2023-07-13T14:23:40;10.60;;;3.72;;
49890;SDS011;35780;55.568;37.492;2023-07-13T14:26:13;5.30;;;2.90;;
49890;SDS011;35780;55.568;37.492;2023-07-13T14:28:49;10.80;;;3.80;;
49890;SDS011;35780;55.568;37.492;2023-07-13T14:31:17;7.57;;;4.05;;
49890;SDS011;35780;55.568;37.492;2023-07-13T14:33:44;12.18;;;4.00;;
49890;SDS011;35780;55.568;37.492;2023-07-13T14:38:59;5.13;;;3.08;;
49890;SDS011;35780;55.568;37.492;2023-07-13T14:41:26;6.90;;;3.80;;
49890;SDS011;35780;55.568;37.492;2023-07-13T14:43:52;12.05;;;4.20;;
49890;SDS011;35780;55.568;37.492;2023-07-13T14:48:58;12.30;;;4.72;;
49890;SDS011;35780;55.568;37.492;2023-07-13T14:51:29;7.15;;;3.70;;
49890;SDS011;35780;55.568;37.492;2023-07-13T14:53:56;8.52;;;3.85;;
49890;SDS011;35780;55.568;37.492;2023-07-13T14:56:21;9.95;;;3.50;;
49890;SDS011;35780;55.568;37.492;2023-07-13T14:58:47;7.50;;;4.68;;
49890;SDS011;35780;55.568;37.492;2023-07-13T15:01:13;7.32;;;4.03;;
49890;SDS011;35780;55.568;37.492;2023-07-13T15:03:44;9.88;;;4.88;;
49890;SDS011;35780;55.568;37.492;2023-07-13T15:06:11;9.85;;;4.15;;
49890;SDS011;35780;55.568;37.492;2023-07-13T15:08:38;10.35;;;4.82;;
49890;SDS011;35780;55.568;37.492;2023-07-13T15:11:06;6.35;;;3.67;;
49890;SDS011;35780;55.568;37.492;2023-07-13T15:13:32;6.40;;;3.70;;
49890;SDS011;35780;55.568;37.492;2023-07-13T15:15:58;8.07;;;4.47;;
49890;SDS011;35780;55.568;37.492;2023-07-13T15:18:24;9.50;;;3.83;;
49890;SDS011;35780;55.568;37.492;2023-07-13T15:20:52;11.50;;;4.10;;
49890;SDS011;35780;55.568;37.492;2023-07-13T15:23:20;9.68;;;4.15;;
49890;SDS011;35780;55.568;37.492;2023-07-13T15:25:47;11.90;;;4.47;;
49890;SDS011;35780;55.568;37.492;2023-07-13T15:28:13;8.75;;;4.00;;
49890;SDS011;35780;55.568;37.492;2023-07-13T15:30:47;6.57;;;3.67;;
49890;SDS011;35780;55.568;37.492;2023-07-13T15:33:18;8.47;;;3.30;;
49890;SDS011;35780;55.568;37.492;2023-07-13T15:35:50;9.35;;;4.38;;
49890;SDS011;35780;55.568;37.492;2023-07-13T15:38:17;10.35;;;4.00;;
49890;SDS011;35780;55.568;37.492;2023-07-13T15:40:54;7.30;;;3.88;;
49890;SDS011;35780;55.568;37.492;2023-07-13T15:43:21;7.50;;;3.88;;